Time;durP1;ratioP1;P1;durP2;ratioP2;P2;SDS_P1;SDS_P2;PMS_P1;PMS_P2;Temp;Humidity;BMP_temperature;BMP_pressure;BME280_temperature;BME280_humidity;BME280_pressure;Samples;Min_cycle;Max_cycle;Signal;HPM_P1;HPM_P2
2022/10/22 00:05:00;;;;;;;29.3;35.1;;;;;;;8.7;81.8;98680;;;;
2022/10/22 00:16:00;;;;;;;24.8;29.9;;;;;;;8.7;82.1;98670;;;;
2022/10/22 00:26:00;;;;;;;24.8;29.9;;;;;;;8.8;82.1;98650;;;;
2022/10/22 00:37:00;;;;;;;24.8;29.9;;;;;;;8.9;82;98660;;;;
2022/10/22 00:48:00;;;;;;;26.3;32.3;;;;;;;8.9;81.7;98660;;;;
2022/10/22 00:59:00;;;;;;;26.3;32.3;;;;;;;8.9;81.8;98660;;;;
2022/10/22 01:10:00;;;;;;;26.3;32.3;;;;;;;8.8;82.2;98650;;;;
2022/10/22 01:20:00;;;;;;;23.6;30.2;;;;;;;8.8;82.3;98640;;;;
2022/10/22 01:31:00;;;;;;;23.6;30.2;;;;;;;8.7;82.2;98640;;;;
2022/10/22 01:41:00;;;;;;;23.6;30.2;;;;;;;8.5;82.1;98650;;;;
2022/10/22 01:51:00;;;;;;;23.4;31.1;;;;;;;8.3;82.2;98630;;;;
2022/10/22 02:02:00;;;;;;;23.4;31.1;;;;;;;8;82.2;98620;;;;
2022/10/22 02:12:00;;;;;;;23.4;31.1;;;;;;;7.7;82.5;98620;;;;
2022/10/22 02:22:00;;;;;;;19.5;24.8;;;;;;;7.5;82.7;98620;;;;
2022/10/22 02:33:00;;;;;;;19.5;24.8;;;;;;;7.2;83.2;98630;;;;
2022/10/22 02:43:00;;;;;;;19.5;24.8;;;;;;;7.1;83.6;98640;;;;
2022/10/22 02:54:00;;;;;;;20.1;28.2;;;;;;;6.9;84.1;98630;;;;
2022/10/22 03:04:00;;;;;;;20.1;28.2;;;;;;;6.7;85;98620;;;;
2022/10/22 03:14:00;;;;;;;18.8;24.5;;;;;;;6.6;85.1;98630;;;;
2022/10/22 03:24:00;;;;;;;18.8;24.5;;;;;;;6.6;85.6;98640;;;;
2022/10/22 03:35:00;;;;;;;18.8;24.5;;;;;;;6.7;86.5;98630;;;;
2022/10/22 03:45:00;;;;;;;20.3;26.3;;;;;;;6.6;86.3;98630;;;;
2022/10/22 03:56:00;;;;;;;20.3;26.3;;;;;;;6.5;86.1;98620;;;;
2022/10/22 04:07:00;;;;;;;20.3;26.3;;;;;;;6.4;86;98610;;;;
2022/10/22 04:18:00;;;;;;;19;28;;;;;;;6.3;85.9;98600;;;;
2022/10/22 04:28:00;;;;;;;19;28;;;;;;;6;86.1;98600;;;;
2022/10/22 04:39:00;;;;;;;19;28;;;;;;;5.9;86.6;98600;;;;
2022/10/22 04:50:00;;;;;;;16.8;24.6;;;;;;;5.9;86.6;98600;;;;
2022/10/22 05:01:00;;;;;;;16.8;24.6;;;;;;;5.9;87.3;98630;;;;
2022/10/22 05:12:00;;;;;;;16.8;24.6;;;;;;;5.9;87.4;98640;;;;
2022/10/22 05:22:59;;;;;;;16.6;22.2;;;;;;;5.9;87.2;98630;;;;
2022/10/22 05:34:00;;;;;;;16.6;22.2;;;;;;;5.8;87.2;98590;;;;
2022/10/22 05:44:59;;;;;;;16.9;23.4;;;;;;;6;88.2;98610;;;;
2022/10/22 05:55:00;;;;;;;16.9;23.4;;;;;;;6.1;88.4;98630;;;;
2022/10/22 06:05:00;;;;;;;16.9;23.4;;;;;;;6.2;88.2;98610;;;;
2022/10/22 06:16:00;;;;;;;17;26.3;;;;;;;6.2;87.8;98630;;;;
2022/10/22 06:26:59;;;;;;;17;26.3;;;;;;;6.4;87.7;98640;;;;
2022/10/22 06:36:59;;;;;;;17;26.3;;;;;;;6.8;88.1;98630;;;;
2022/10/22 06:46:59;;;;;;;23.1;27.9;;;;;;;7.5;88.3;98660;;;;
2022/10/22 06:56:59;;;;;;;23.1;27.9;;;;;;;7.9;87.1;98670;;;;
2022/10/22 07:07:59;;;;;;;23.1;27.9;;;;;;;8.4;86;98700;;;;
2022/10/22 07:18:59;;;;;;;30.5;43.3;;;;;;;9.1;85.3;98690;;;;
2022/10/22 07:30:00;;;;;;;30.5;43.3;;;;;;;9.9;83.9;98670;;;;
2022/10/22 07:39:59;;;;;;;30.5;43.3;;;;;;;10.8;83;98700;;;;
2022/10/22 07:49:59;;;;;;;23.3;31.4;;;;;;;11.2;79.1;98690;;;;
2022/10/22 08:00:59;;;;;;;23.3;31.4;;;;;;;11.5;78.5;98670;;;;
2022/10/22 08:10:59;;;;;;;23.3;31.4;;;;;;;11.9;78.6;98660;;;;
2022/10/22 08:21:59;;;;;;;26.1;31.3;;;;;;;12.2;76.2;98670;;;;
2022/10/22 08:32:59;;;;;;;26.1;31.3;;;;;;;12.5;75.6;98700;;;;
2022/10/22 08:42:59;;;;;;;17.2;20.2;;;;;;;12.9;73.9;98700;;;;
2022/10/22 08:52:59;;;;;;;17.2;20.2;;;;;;;13.1;73.3;98710;;;;
2022/10/22 09:03:59;;;;;;;17.2;20.2;;;;;;;13;73;98720;;;;
2022/10/22 09:13:59;;;;;;;20.1;23.5;;;;;;;13.3;72.6;98680;;;;
2022/10/22 09:23:59;;;;;;;20.1;23.5;;;;;;;13.6;71.2;98680;;;;
2022/10/22 09:34:04;;;;;;;20.1;23.5;;;;;;;13.8;70.6;98690;;;;
2022/10/22 09:43:59;;;;;;;18.5;21.4;;;;;;;13.9;71.2;98680;;;;
2022/10/22 09:54:59;;;;;;;18.5;21.4;;;;;;;13.9;71.2;98690;;;;
2022/10/22 10:04:59;;;;;;;18.5;21.4;;;;;;;13.8;70.6;98680;;;;
2022/10/22 10:15:59;;;;;;;18.4;25;;;;;;;13.7;70.3;98680;;;;
2022/10/22 10:26:59;;;;;;;18.4;25;;;;;;;13.5;70.8;98710;;;;
2022/10/22 10:37:59;;;;;;;18.4;25;;;;;;;13.3;71.2;98700;;;;
2022/10/22 10:48:59;;;;;;;19.4;23.3;;;;;;;13.3;72.2;98700;;;;
2022/10/22 10:58:59;;;;;;;19.4;23.3;;;;;;;13.3;72.6;98700;;;;
2022/10/22 11:09:59;;;;;;;19.4;23.3;;;;;;;13.4;74.1;98700;;;;
2022/10/22 11:20:59;;;;;;;19.4;22.8;;;;;;;13.3;74.4;98700;;;;
2022/10/22 11:30:59;;;;;;;19.4;22.8;;;;;;;13.2;76;98690;;;;
2022/10/22 11:41:59;;;;;;;19.4;22.8;;;;;;;13;78.6;98690;;;;
2022/10/22 11:51:59;;;;;;;22.6;26;;;;;;;12.9;79.1;98660;;;;
2022/10/22 12:02:59;;;;;;;22.6;26;;;;;;;13.1;80.1;98650;;;;
2022/10/22 12:14:00;;;;;;;25;31;;;;;;;13.1;81.3;98640;;;;
2022/10/22 12:24:59;;;;;;;25;31;;;;;;;13.1;82.2;98640;;;;
2022/10/22 12:36:02;;;;;;;25;31;;;;;;;13.2;81.2;98650;;;;
2022/10/22 12:46:59;;;;;;;22.9;26.9;;;;;;;13.2;80.5;98640;;;;
2022/10/22 12:57:59;;;;;;;22.9;26.9;;;;;;;13.3;81.1;98650;;;;
2022/10/22 13:07:59;;;;;;;22.9;26.9;;;;;;;13.4;81.1;98640;;;;
2022/10/22 13:17:59;;;;;;;25.3;29.1;;;;;;;13.4;81.2;98650;;;;
2022/10/22 13:27:59;;;;;;;25.3;29.1;;;;;;;13.2;81.2;98640;;;;
2022/10/22 13:38:59;;;;;;;25.3;29.1;;;;;;;13.2;81.3;98650;;;;
2022/10/22 13:49:59;;;;;;;25.7;28.6;;;;;;;13.1;82.1;98630;;;;
2022/10/22 14:00:59;;;;;;;25.7;28.6;;;;;;;12.9;83.4;98600;;;;
2022/10/22 14:10:59;;;;;;;25.7;28.6;;;;;;;12.8;83.8;98610;;;;
2022/10/22 14:21:59;;;;;;;24.5;28.5;;;;;;;12.9;83.5;98620;;;;
2022/10/22 14:31:59;;;;;;;24.5;28.5;;;;;;;12.8;83.8;98620;;;;
2022/10/22 14:41:59;;;;;;;24.5;28.5;;;;;;;12.7;84.1;98620;;;;
2022/10/22 14:52:59;;;;;;;24.4;28.8;;;;;;;12.7;84.5;98640;;;;
2022/10/22 15:03:59;;;;;;;24.4;28.8;;;;;;;12.6;85.1;98640;;;;
2022/10/22 15:14:59;;;;;;;26.3;29.7;;;;;;;12.7;85.2;98650;;;;
2022/10/22 15:24:59;;;;;;;26.3;29.7;;;;;;;12.6;85.5;98650;;;;
2022/10/22 15:35:59;;;;;;;26.3;29.7;;;;;;;12.5;85.8;98650;;;;
2022/10/22 15:45:59;;;;;;;37.8;47.5;;;;;;;12.5;86.2;98650;;;;
2022/10/22 15:57:00;;;;;;;37.8;47.5;;;;;;;12.5;86.2;98660;;;;
2022/10/22 16:07:59;;;;;;;37.8;47.5;;;;;;;12.6;86;98670;;;;
2022/10/22 16:18:59;;;;;;;44.9;58.2;;;;;;;12.6;86;98670;;;;
2022/10/22 16:29:59;;;;;;;44.9;58.2;;;;;;;12.6;86.1;98700;;;;
2022/10/22 16:40:59;;;;;;;44.9;58.2;;;;;;;12.5;86.6;98710;;;;
2022/10/22 16:50:59;;;;;;;45;53;;;;;;;12.5;87.1;98720;;;;
2022/10/22 17:00:59;;;;;;;45;53;;;;;;;12.5;87.2;98740;;;;
2022/10/22 17:11:59;;;;;;;45;53;;;;;;;12.5;87.7;98740;;;;
2022/10/22 17:21:59;;;;;;;50.1;55.9;;;;;;;12.5;87.8;98740;;;;
2022/10/22 17:32:59;;;;;;;50.1;55.9;;;;;;;12.4;88.5;98740;;;;
2022/10/22 17:43:59;;;;;;;55.5;64.2;;;;;;;12.3;89.3;98730;;;;
2022/10/22 17:53:59;;;;;;;55.5;64.2;;;;;;;12.4;89.7;98740;;;;
2022/10/22 18:03:59;;;;;;;55.5;64.2;;;;;;;12.4;89.8;98760;;;;
2022/10/22 18:14:59;;;;;;;45.9;51.8;;;;;;;12.5;89.8;98760;;;;
2022/10/22 18:24:59;;;;;;;45.9;51.8;;;;;;;12.5;90;98770;;;;
2022/10/22 18:35:59;;;;;;;45.9;51.8;;;;;;;12.5;90.2;98770;;;;
2022/10/22 18:46:59;;;;;;;39.8;44.4;;;;;;;12.4;90.5;98780;;;;
2022/10/22 18:57:59;;;;;;;39.8;44.4;;;;;;;12.3;90.7;98790;;;;
2022/10/22 19:07:59;;;;;;;39.8;44.4;;;;;;;12.4;90.8;98800;;;;
2022/10/22 19:18:59;;;;;;;30.3;33.9;;;;;;;12.2;91.1;98810;;;;
2022/10/22 19:29:59;;;;;;;30.3;33.9;;;;;;;12.3;91.1;98810;;;;
2022/10/22 19:39:59;;;;;;;30.3;33.9;;;;;;;12.2;91.2;98830;;;;
2022/10/22 19:49:59;;;;;;;22.4;25;;;;;;;12.3;91;98850;;;;
2022/10/22 20:00:59;;;;;;;22.4;25;;;;;;;12.3;90.9;98850;;;;
2022/10/22 20:10:58;;;;;;;22.4;25;;;;;;;12.3;90.8;98870;;;;
2022/10/22 20:21:59;;;;;;;20.3;25.3;;;;;;;12.4;90.7;98880;;;;
2022/10/22 20:31:59;;;;;;;20.3;25.3;;;;;;;12.4;90.7;98890;;;;
2022/10/22 20:41:59;;;;;;;20.3;25.3;;;;;;;12.3;90.8;98900;;;;
2022/10/22 20:52:59;;;;;;;17.3;21.3;;;;;;;12.4;90.7;98900;;;;
2022/10/22 21:02:59;;;;;;;17.3;21.3;;;;;;;12.4;90.6;98910;;;;
2022/10/22 21:13:58;;;;;;;17.4;20.9;;;;;;;12.2;90.6;98920;;;;
2022/10/22 21:23:58;;;;;;;17.4;20.9;;;;;;;12.1;90.8;98930;;;;
2022/10/22 21:33:58;;;;;;;17.4;20.9;;;;;;;12.1;91;98920;;;;
2022/10/22 21:43:58;;;;;;;20.1;25.5;;;;;;;12.1;90.9;98930;;;;
2022/10/22 21:53:58;;;;;;;20.1;25.5;;;;;;;12.2;91.1;98910;;;;
2022/10/22 22:04:58;;;;;;;20.1;25.5;;;;;;;12.3;91.2;98930;;;;
2022/10/22 22:14:58;;;;;;;17.9;22.1;;;;;;;12.5;91;98940;;;;
2022/10/22 22:25:59;;;;;;;17.9;22.1;;;;;;;12.6;90.9;98950;;;;
2022/10/22 22:36:58;;;;;;;17.9;22.1;;;;;;;12.7;90.5;98960;;;;
2022/10/22 22:46:58;;;;;;;17;21.7;;;;;;;12.8;90.3;98960;;;;
2022/10/22 22:56:58;;;;;;;17;21.7;;;;;;;12.8;89.9;98950;;;;
2022/10/22 23:07:59;;;;;;;17;21.7;;;;;;;12.9;89.5;98960;;;;
2022/10/22 23:17:58;;;;;;;11.8;14.5;;;;;;;12.9;89.4;98970;;;;
2022/10/22 23:28:58;;;;;;;11.8;14.5;;;;;;;13;89.2;98980;;;;
2022/10/22 23:39:58;;;;;;;11.8;14.5;;;;;;;13.1;88.9;99000;;;;
2022/10/22 23:49:58;;;;;;;12.3;15.3;;;;;;;13.1;88.9;99010;;;;
2022/10/22 23:59:58;;;;;;;12.3;15.3;;;;;;;13;88.9;99010;;;;
